Terminal Aerodrome Forecast
Issued by NWS Quad Cities IA IL

Home | Current Version | Previous Version | Text Only | Print | Product List | Glossary On
Versions: 1 2 3 4 5 6 7 8 9 10 11 12 13 14 15 16 17 18 19 20 21 22 23
000
FTUS43 KDVN 302000 AAA
TAFDBQ
TAF AMD
KDBQ 302046Z 3021/3118 26015G22KT P6SM FEW250
     FM310100 23012KT P6SM SKC
     FM310700 32010KT P6SM SKC=

USA.gov is the U.S. government's official web portal to all federal, state and local government web resources and services.